Time;durP1;ratioP1;P1;durP2;ratioP2;P2;SDS_P1;SDS_P2;PMS_P1;PMS_P2;Temp;Humidity;BMP_temperature;BMP_pressure;BME280_temperature;BME280_humidity;BME280_pressure;Samples;Min_cycle;Max_cycle;Signal;HPM_P1;HPM_P2
2022/07/12 14:20:58;;;;;;;4.03;3.15;;;39.10;26.70;;;31.27;26.23;96198.56;5083337;27;20355;-46
2022/07/12 14:23:24;;;;;;;5.72;3.70;;;39.00;24.90;;;31.68;25.02;96194.88;5064668;28;20028;-45
2022/07/12 14:25:50;;;;;;;4.75;3.75;;;39.40;23.90;;;31.88;25.30;96198.88;5062364;28;20020;-45
2022/07/12 14:28:16;;;;;;;3.60;3.22;;;40.00;23.10;;;31.94;23.80;96199.34;5066198;28;20028;-46
2022/07/12 14:30:47;;;;;;;4.50;4.00;;;40.40;22.30;;;32.01;23.22;96185.56;5066988;28;20055;-46
2022/07/12 14:33:22;;;;;;;4.32;3.65;;;40.90;21.50;;;32.22;23.98;96190.34;5066849;28;20107;-46
2022/07/12 14:35:57;;;;;;;4.63;3.72;;;41.30;21.10;;;32.43;24.36;96189.56;5065921;28;20495;-46
2022/07/12 14:38:29;;;;;;;4.13;3.83;;;41.70;20.90;;;32.11;24.43;96189.53;5067298;28;20027;-49
2022/07/12 14:40:55;;;;;;;3.92;3.63;;;42.00;20.50;;;32.33;25.02;96184.84;5079817;28;20132;-45
2022/07/12 14:43:21;;;;;;;3.83;3.53;;;42.30;20.40;;;32.45;24.13;96187.25;5048757;28;20091;-47
2022/07/12 14:45:47;;;;;;;4.35;4.05;;;42.50;20.00;;;32.39;23.47;96183.28;5067096;28;20059;-46
2022/07/12 14:48:13;;;;;;;5.20;4.32;;;42.90;19.70;;;32.75;22.37;96181.38;5067113;28;20035;-48
2022/07/12 14:50:42;;;;;;;4.18;3.88;;;43.20;19.20;;;33.35;22.52;96176.97;5062043;28;20016;-46
2022/07/12 14:53:08;;;;;;;4.55;4.15;;;43.60;19.00;;;33.04;22.84;96184.13;5065125;28;20192;-45
2022/07/12 14:55:34;;;;;;;5.13;4.82;;;44.10;18.70;;;32.97;22.46;96182.16;5048635;28;20392;-46
2022/07/12 14:58:01;;;;;;;4.88;4.47;;;44.50;18.40;;;33.40;22.51;96176.53;5062024;28;20085;-48
2022/07/12 15:00:28;;;;;;;4.68;3.95;;;44.80;18.10;;;33.03;22.84;96182.53;5056695;28;20454;-49
2022/07/12 15:02:59;;;;;;;4.28;3.97;;;45.30;18.40;;;32.73;21.94;96180.97;5081794;28;20048;-49
2022/07/12 15:05:27;;;;;;;4.93;4.60;;;45.60;17.30;;;32.56;21.06;96178.97;5062657;28;20024;-48
2022/07/12 15:07:52;;;;;;;3.70;3.40;;;46.00;16.80;;;32.77;19.47;96172.69;5066700;28;20398;-46
2022/07/12 15:10:18;;;;;;;4.60;4.30;;;46.30;16.30;;;32.98;18.82;96174.66;5048504;28;20031;-46
2022/07/12 15:12:44;;;;;;;3.92;3.60;;;46.60;15.90;;;33.38;17.61;96174.19;5081571;28;20016;-46
2022/07/12 15:15:13;;;;;;;3.53;3.33;;;46.90;15.30;;;34.09;15.39;96170.34;5062515;28;20498;-54
2022/07/12 15:17:42;;;;;;;4.32;4.00;;;47.40;14.40;;;33.21;13.56;96171.47;5065068;28;20024;-46
2022/07/12 15:20:08;;;;;;;4.40;4.13;;;47.90;14.20;;;33.44;15.77;96169.03;5065971;28;20097;-46
2022/07/12 15:22:41;;;;;;;4.97;4.55;;;48.20;13.40;;;33.50;17.64;96172.19;5061346;28;20030;-48
2022/07/12 15:25:07;;;;;;;4.30;4.10;;;48.60;13.50;;;33.15;17.77;96176.59;5058060;28;20024;-46
2022/07/12 15:27:36;;;;;;;5.53;5.22;;;49.00;13.40;;;33.58;17.94;96179.28;5060846;28;20112;-47
2022/07/12 15:30:09;;;;;;;5.65;5.35;;;49.50;13.20;;;34.42;16.67;96170.94;5059180;28;20112;-47
2022/07/12 15:32:35;;;;;;;5.30;4.90;;;50.10;13.00;;;33.73;16.84;96171.72;5045975;28;20020;-47
2022/07/12 15:35:06;;;;;;;6.90;6.50;;;50.80;13.00;;;34.50;16.90;96163.38;5052749;28;20055;-49
2022/07/12 15:37:31;;;;;;;6.38;6.07;;;51.50;12.50;;;34.29;17.16;96158.78;5052455;28;20025;-47
2022/07/12 15:39:57;;;;;;;8.35;7.65;;;52.10;12.20;;;33.61;17.72;96156.38;5068150;28;20513;-51
2022/07/12 15:42:23;;;;;;;8.38;7.97;;;52.50;12.00;;;34.26;17.20;96154.88;5030954;28;20024;-48
2022/07/12 15:44:52;;;;;;;8.23;7.72;;;52.80;11.90;;;34.08;17.32;96151.44;5031492;28;20060;-54
2022/07/12 15:47:26;;;;;;;8.30;7.85;;;53.10;11.70;;;34.28;16.63;96160.75;5045427;28;20624;-54
2022/07/12 15:49:51;;;;;;;9.93;9.07;;;53.40;11.50;;;35.47;16.07;96154.97;5053126;28;20400;-51
2022/07/12 15:55:09;;;;;;;11.23;10.63;;;53.90;11.30;;;35.03;16.02;96159.41;5041807;28;20087;-51
2022/07/12 15:57:38;;;;;;;10.48;9.88;;;54.00;11.10;;;35.08;16.24;96156.19;5041623;28;20036;-55
2022/07/12 16:00:14;;;;;;;;;;;53.80;11.00;;;35.16;16.90;96165.19;5043038;28;20119;-55
2022/07/12 16:02:44;;;;;;;9.52;8.93;;;53.70;11.50;;;34.85;17.09;96155.97;5043644;28;19916;-56
2022/07/12 16:05:12;;;;;;;;;;;53.80;11.30;;;35.12;17.46;96153.38;5031461;28;20120;-54
2022/07/12 16:07:38;;;;;;;6.72;6.32;;;53.50;11.70;;;35.30;16.22;96158.75;5046842;28;19919;-53
2022/07/12 16:10:09;;;;;;;7.22;6.82;;;53.60;11.30;;;35.10;16.61;96153.81;5044295;28;20111;-52
2022/07/12 16:12:42;;;;;;;7.38;6.95;;;53.40;11.10;;;34.86;17.14;96168.66;5016752;28;20058;-53
2022/07/12 16:15:12;;;;;;;7.80;7.30;;;53.30;11.10;;;34.50;16.07;96163.38;5061727;28;20021;-51
2022/07/12 16:17:42;;;;;;;6.75;6.35;;;53.20;10.80;;;34.28;17.04;96160.75;5013909;28;20052;-51
2022/07/12 16:20:09;;;;;;;6.43;6.03;;;53.00;10.80;;;34.43;17.13;96166.19;5047803;28;20040;-50
2022/07/12 16:22:35;;;;;;;6.03;5.72;;;53.00;10.80;;;35.05;16.91;96154.25;5046457;28;20025;-53
2022/07/12 16:25:01;;;;;;;6.72;6.32;;;53.00;10.90;;;34.18;17.78;96160.84;5049467;28;20026;-51
2022/07/12 16:27:28;;;;;;;6.45;6.13;;;53.00;10.90;;;34.85;16.75;96167.88;5046692;28;20021;-54
2022/07/12 16:29:54;;;;;;;6.63;6.32;;;52.90;10.90;;;35.17;16.69;96158.47;5050085;28;20039;-50
2022/07/12 16:32:22;;;;;;;6.20;5.90;;;53.00;10.90;;;35.04;17.75;96157.41;5043622;28;20443;-51
2022/07/12 16:34:53;;;;;;;7.93;7.45;;;53.00;11.00;;;34.95;17.59;96169.72;5046231;28;20457;-51
2022/07/12 16:37:19;;;;;;;7.93;7.53;;;53.10;11.00;;;34.61;17.89;96160.56;5056124;28;20088;-55
2022/07/12 16:39:45;;;;;;;7.75;7.25;;;53.10;11.10;;;34.42;18.49;96153.56;5048885;28;20538;-51
2022/07/12 16:42:11;;;;;;;7.60;7.07;;;53.20;11.10;;;33.84;18.52;96159.41;5046860;28;20028;-51
2022/07/12 16:44:37;;;;;;;7.50;7.00;;;53.20;11.00;;;33.91;18.34;96164.13;5030700;28;20037;-51
2022/07/12 16:47:03;;;;;;;7.22;6.82;;;53.00;11.00;;;33.60;19.15;96152.06;5040123;28;20070;-53
2022/07/12 16:49:29;;;;;;;5.72;5.43;;;52.80;11.10;;;33.85;18.74;96161.00;5046926;28;20055;-51
2022/07/12 16:52:07;;;;;;;5.05;4.72;;;52.20;11.20;;;33.73;18.84;96161.47;5044383;28;20095;-52
2022/07/12 16:54:35;;;;;;;6.35;5.55;;;52.20;11.40;;;33.04;19.86;96157.31;5051254;28;20024;-51
2022/07/12 16:57:04;;;;;;;6.55;6.05;;;52.30;11.30;;;32.50;20.32;96156.56;5051049;28;20028;-51
2022/07/12 16:59:30;;;;;;;5.90;5.53;;;52.00;11.40;;;32.74;20.46;96160.47;5046382;28;20112;-52
2022/07/12 17:01:56;;;;;;;6.03;5.72;;;51.90;11.50;;;32.63;20.65;96160.47;5027901;28;20487;-55
2022/07/12 17:04:22;;;;;;;4.65;4.35;;;51.80;11.50;;;32.17;21.38;96157.66;5051273;28;20035;-52
2022/07/12 17:06:49;;;;;;;6.05;4.47;;;50.90;11.70;;;32.22;21.46;96162.78;5050898;28;20063;-51
2022/07/12 17:09:24;;;;;;;5.18;4.68;;;50.30;12.00;;;32.31;21.55;96162.38;5046513;28;20036;-51
2022/07/12 17:11:52;;;;;;;5.20;4.82;;;50.50;12.20;;;32.15;22.08;96162.75;5027050;28;20044;-51
2022/07/12 17:14:26;;;;;;;3.63;3.33;;;50.60;12.10;;;32.19;22.59;96166.34;5042171;28;20016;-53
2022/07/12 17:16:53;;;;;;;2.40;2.30;;;50.30;12.20;;;31.67;22.93;96168.50;5049374;28;20028;-51
2022/07/12 17:19:19;;;;;;;3.40;2.38;;;48.20;12.60;;;30.42;23.90;96163.75;5050639;28;20048;-54
2022/07/12 17:21:44;;;;;;;2.30;2.13;;;45.80;13.60;;;29.52;25.75;96174.91;5045571;28;20032;-53
2022/07/12 17:24:13;;;;;;;2.50;2.30;;;43.30;14.70;;;29.18;27.01;96177.63;5054058;28;20036;-52
2022/07/12 17:26:48;;;;;;;1.67;1.58;;;41.00;15.90;;;28.63;26.67;96165.41;5048401;28;20425;-54
2022/07/12 17:29:19;;;;;;;2.10;1.90;;;39.10;16.90;;;28.44;28.27;96171.75;5050636;28;20391;-52
2022/07/12 17:31:48;;;;;;;4.72;1.70;;;37.60;17.90;;;28.35;28.39;96171.94;5043711;28;20031;-53
2022/07/12 17:34:20;;;;;;;5.65;1.85;;;36.30;18.80;;;27.80;29.37;96176.84;5065759;28;20028;-49
2022/07/12 17:36:47;;;;;;;1.80;1.70;;;35.30;19.70;;;27.45;30.01;96177.66;5004593;28;27635;-53
2022/07/12 17:39:14;;;;;;;3.22;1.80;;;34.50;20.30;;;27.12;29.43;96173.41;4961914;28;20042;-51
2022/07/12 17:41:41;;;;;;;1.98;1.73;;;33.70;20.80;;;26.80;30.38;96172.72;4975390;28;20031;-49
2022/07/12 17:44:08;;;;;;;3.38;1.73;;;33.00;21.40;;;26.57;30.88;96175.28;4985425;28;20036;-48
2022/07/12 17:46:35;;;;;;;2.28;2.08;;;32.50;21.90;;;26.31;31.74;96176.56;4969243;28;20099;-52
2022/07/12 17:49:02;;;;;;;1.95;1.85;;;32.10;22.40;;;26.22;32.03;96177.88;4985572;28;20172;-48
2022/07/12 17:51:29;;;;;;;1.85;1.60;;;31.70;22.80;;;26.06;33.30;96175.94;4984977;28;20030;-51
2022/07/12 17:53:56;;;;;;;2.05;1.40;;;31.50;23.40;;;26.12;32.67;96176.47;4982714;28;20025;-48
2022/07/12 17:56:22;;;;;;;2.47;1.40;;;31.30;23.70;;;25.94;32.80;96184.16;4968750;28;20366;-52
2022/07/12 17:58:58;;;;;;;3.72;2.10;;;31.10;24.00;;;25.92;33.83;96183.75;4986001;28;20037;-48
2022/07/12 18:01:24;;;;;;;3.88;1.70;;;30.80;24.70;;;25.67;33.39;96188.50;4969843;28;20045;-49
2022/07/12 18:03:52;;;;;;;6.95;2.00;;;30.60;24.70;;;25.63;34.95;96187.56;4986706;28;20029;-52
2022/07/12 18:06:27;;;;;;;7.82;2.17;;;30.40;25.20;;;25.55;34.74;96183.09;4989430;28;20029;-51
2022/07/12 18:08:53;;;;;;;6.20;1.80;;;30.20;25.60;;;25.28;34.10;96181.91;4985166;28;20485;-52
2022/07/12 18:19:40;;;;;;;6.25;1.85;;;29.40;26.10;;;24.94;35.76;96192.16;4989943;28;20057;-49
2022/07/12 18:22:06;;;;;;;3.78;1.58;;;29.20;26.60;;;24.86;35.57;96191.16;4989014;28;20029;-49
2022/07/12 18:24:32;;;;;;;3.45;1.75;;;29.00;26.80;;;24.77;35.74;96193.19;4969883;28;20030;-52
2022/07/12 18:26:58;;;;;;;5.90;1.52;;;28.90;27.20;;;24.65;36.57;96190.47;4984820;28;20061;-48
2022/07/12 18:29:24;;;;;;;3.28;1.90;;;28.70;27.40;;;24.48;36.97;96190.69;4984551;28;20025;-50
2022/07/12 18:31:49;;;;;;;6.82;1.70;;;28.50;27.70;;;24.35;38.27;96187.94;4983249;28;20750;-47
2022/07/12 18:34:16;;;;;;;7.80;1.60;;;28.40;28.00;;;24.20;38.15;96194.81;4986501;28;20432;-50
2022/07/12 18:36:42;;;;;;;4.43;1.50;;;28.20;28.30;;;23.99;38.65;96186.72;4981954;28;20040;-54
2022/07/12 18:39:07;;;;;;;4.30;1.55;;;28.00;28.60;;;23.89;39.11;96189.06;4988454;28;20033;-48
2022/07/12 18:41:34;;;;;;;4.03;1.40;;;27.90;28.90;;;23.64;38.39;96188.94;4988934;28;20262;-50
2022/07/12 18:44:00;;;;;;;4.25;1.60;;;27.70;29.00;;;23.58;39.03;96190.28;4988184;28;20040;-49
2022/07/12 18:46:26;;;;;;;3.88;1.50;;;27.50;29.10;;;23.46;39.00;96190.22;4985392;28;20396;-49
2022/07/12 18:48:51;;;;;;;3.33;1.73;;;27.40;29.40;;;23.33;40.15;96187.44;4984233;28;20034;-49
2022/07/12 18:51:17;;;;;;;2.67;1.40;;;27.30;29.70;;;23.21;40.86;96189.28;4989473;28;20029;-49
2022/07/12 18:53:46;;;;;;;8.18;1.40;;;27.10;30.00;;;23.01;40.81;96186.25;4989114;28;20022;-46
2022/07/12 18:56:14;;;;;;;1.88;1.17;;;26.90;30.30;;;22.90;40.78;96186.91;4984305;28;20018;-47
2022/07/12 18:58:40;;;;;;;5.53;1.40;;;26.70;30.40;;;22.73;41.47;96180.47;4984365;28;20123;-50
2022/07/12 19:01:06;;;;;;;6.75;1.35;;;26.60;30.80;;;22.58;41.88;96181.03;4985024;28;20057;-49
2022/07/12 19:03:32;;;;;;;1.95;1.20;;;26.40;31.10;;;22.41;42.64;96181.91;4980701;28;20492;-50
2022/07/12 19:05:57;;;;;;;4.70;1.30;;;26.20;31.50;;;22.25;42.51;96180.84;4988785;28;20234;-50
2022/07/12 19:08:26;;;;;;;1.20;1.05;;;26.00;31.80;;;22.08;43.14;96181.66;4993074;28;20435;-49
2022/07/12 19:10:56;;;;;;;2.20;1.42;;;25.80;32.20;;;21.88;43.14;96181.25;4996611;28;20480;-51
2022/07/12 19:13:22;;;;;;;2.17;1.33;;;25.60;32.30;;;21.69;43.86;96180.81;4992621;28;20050;-48
2022/07/12 19:15:49;;;;;;;2.72;1.08;;;25.50;32.70;;;21.54;43.17;96179.38;4992771;28;20021;-50
2022/07/12 19:18:16;;;;;;;2.13;1.30;;;25.30;32.90;;;21.32;44.90;96185.72;4991150;28;20025;-48
2022/07/12 19:20:48;;;;;;;1.40;1.20;;;25.10;33.20;;;21.14;45.48;96184.91;4977669;28;20097;-52
2022/07/12 19:23:14;;;;;;;1.05;0.95;;;24.90;33.90;;;20.97;46.13;96188.41;5001617;28;20021;-49
2022/07/12 19:25:43;;;;;;;1.63;1.10;;;24.80;33.90;;;20.80;47.26;96191.06;4992342;28;20044;-54
2022/07/12 19:28:12;;;;;;;1.48;0.98;;;24.60;34.60;;;20.60;47.38;96194.38;4992801;28;20026;-50
2022/07/12 19:30:38;;;;;;;3.67;1.10;;;24.40;35.00;;;20.45;47.72;96196.34;4988771;28;20057;-50
2022/07/12 19:33:06;;;;;;;5.60;1.55;;;24.20;35.20;;;20.27;47.91;96202.78;5005056;28;20073;-53
2022/07/12 19:35:34;;;;;;;2.70;1.20;;;24.00;35.70;;;20.09;49.07;96204.63;4984704;28;20463;-53
2022/07/12 19:38:01;;;;;;;5.63;1.02;;;23.80;36.10;;;19.92;48.75;96208.03;5002611;28;20026;-55
2022/07/12 19:40:31;;;;;;;2.95;1.30;;;23.70;36.30;;;19.72;49.95;96208.53;4982948;28;20026;-53
2022/07/12 19:43:24;;;;;;;3.13;1.00;;;23.50;36.80;;;19.51;50.53;96217.09;4992297;28;20064;-49
2022/07/12 19:45:50;;;;;;;5.13;1.10;;;23.30;37.40;;;19.33;52.02;96215.34;4990575;28;20052;-51
2022/07/12 19:48:19;;;;;;;4.25;1.35;;;23.10;37.30;;;19.21;51.41;96215.91;4991032;28;20025;-53
2022/07/12 19:50:45;;;;;;;6.88;1.33;;;23.00;37.90;;;19.05;51.85;96215.41;4991816;28;20030;-49
2022/07/12 19:53:17;;;;;;;1.52;1.00;;;22.80;38.10;;;18.91;51.90;96215.44;4992163;28;20021;-54
2022/07/12 19:55:44;;;;;;;1.75;1.25;;;22.70;38.50;;;18.81;52.51;96220.28;4989940;28;20030;-51
2022/07/12 19:58:13;;;;;;;2.05;1.42;;;22.50;38.70;;;18.68;52.05;96217.25;4992817;28;20038;-49
2022/07/12 20:00:39;;;;;;;1.35;1.20;;;22.40;39.10;;;18.55;52.72;96218.06;4991956;28;20431;-49
2022/07/12 20:03:06;;;;;;;1.67;1.20;;;22.20;39.20;;;18.39;54.03;96216.72;4998093;28;20026;-50
2022/07/12 20:05:35;;;;;;;4.80;1.65;;;22.20;39.70;;;18.25;53.84;96222.91;4989584;28;20120;-52
2022/07/12 20:08:05;;;;;;;2.97;1.20;;;22.00;40.00;;;18.09;54.48;96224.28;4991734;28;20358;-49
2022/07/12 20:10:33;;;;;;;2.65;1.20;;;21.90;40.30;;;17.94;53.97;96225.34;4991441;28;20037;-48
2022/07/12 20:12:59;;;;;;;3.97;1.30;;;21.80;40.30;;;17.89;53.26;96227.31;4979233;28;20026;-47
2022/07/12 20:15:25;;;;;;;2.78;1.13;;;21.70;40.40;;;17.88;53.75;96229.22;5006170;28;20030;-49
2022/07/12 20:18:11;;;;;;;1.20;1.10;;;21.60;40.50;;;17.83;53.87;96225.81;4991414;28;20112;-44
2022/07/12 20:20:43;;;;;;;1.85;1.40;;;21.50;40.90;;;17.74;54.35;96228.38;4991682;28;20124;-45
2022/07/12 20:23:21;;;;;;;3.20;1.10;;;21.40;40.80;;;17.56;54.29;96229.97;4990947;28;20022;-44
2022/07/12 20:25:47;;;;;;;1.27;1.17;;;21.30;41.20;;;17.48;54.39;96226.03;4990997;28;20029;-43
2022/07/12 20:28:13;;;;;;;1.88;1.30;;;21.20;41.10;;;17.42;55.00;96229.09;4973981;28;20026;-43
2022/07/12 20:30:40;;;;;;;1.30;1.15;;;21.10;41.40;;;17.33;55.12;96231.69;4986792;28;20121;-44
2022/07/12 20:35:52;;;;;;;2.22;1.20;;;20.90;41.70;;;17.09;55.97;96234.44;4983212;28;20432;-45
2022/07/12 20:38:20;;;;;;;1.58;1.02;;;20.80;42.00;;;16.93;56.67;96230.34;4992085;28;20021;-45
2022/07/12 20:41:04;;;;;;;3.67;1.00;;;20.70;42.10;;;16.79;57.21;96235.63;4992087;28;20145;-45
2022/07/12 20:43:53;;;;;;;3.30;1.20;;;20.60;42.60;;;16.65;58.02;96230.13;4985736;28;20054;-48
2022/07/12 20:46:19;;;;;;;1.40;1.23;;;20.50;42.90;;;16.57;57.97;96233.44;4994521;28;20656;-46
2022/07/12 20:48:45;;;;;;;1.35;1.15;;;20.30;42.80;;;16.46;58.51;96232.75;4987626;28;20135;-45
2022/07/12 20:51:14;;;;;;;1.42;1.33;;;20.20;43.80;;;16.38;58.13;96236.84;4992356;28;20107;-44
2022/07/12 20:53:39;;;;;;;1.70;1.00;;;20.20;43.50;;;16.35;58.20;96234.72;4971854;28;20477;-45
2022/07/12 20:56:06;;;;;;;1.42;1.20;;;20.10;44.10;;;16.29;58.90;96238.56;4992041;28;20032;-46
2022/07/12 20:58:35;;;;;;;4.18;1.58;;;20.10;43.80;;;16.18;59.48;96239.75;4988005;28;20105;-47
2022/07/12 21:01:02;;;;;;;2.10;1.30;;;19.90;44.00;;;16.13;59.85;96237.91;4992041;28;20033;-45
2022/07/12 21:03:34;;;;;;;1.40;1.30;;;19.90;44.20;;;16.09;59.64;96241.47;4987537;28;20021;-44
2022/07/12 21:06:00;;;;;;;3.60;1.30;;;19.90;44.40;;;16.04;59.53;96234.25;4991712;28;20033;-46
2022/07/12 21:08:29;;;;;;;1.42;1.20;;;19.80;44.80;;;16.04;59.14;96233.44;4989186;28;20033;-45
2022/07/12 21:10:58;;;;;;;9.38;1.50;;;19.70;44.60;;;16.05;59.11;96233.19;4987462;28;20034;-48
2022/07/12 21:13:24;;;;;;;1.90;1.20;;;19.70;44.80;;;16.04;58.94;96233.44;4982718;28;20068;-46
2022/07/12 21:15:50;;;;;;;4.50;1.30;;;19.70;44.80;;;16.01;59.09;96236.69;4986967;28;20058;-48
2022/07/12 21:18:16;;;;;;;1.67;1.33;;;19.70;44.90;;;15.95;59.49;96230.56;4986457;28;20033;-44
2022/07/12 21:20:43;;;;;;;1.10;1.00;;;19.60;45.00;;;15.88;59.56;96228.19;4991165;28;20053;-44
2022/07/12 21:23:09;;;;;;;3.20;1.10;;;19.60;45.20;;;15.88;59.52;96227.41;4973521;28;20018;-47
2022/07/12 21:25:36;;;;;;;1.10;1.00;;;19.60;45.40;;;15.85;59.93;96219.91;4989932;28;20551;-44
2022/07/12 21:28:03;;;;;;;1.13;1.02;;;19.50;45.30;;;15.82;59.75;96220.47;4973289;28;20056;-46
2022/07/12 21:30:35;;;;;;;2.30;1.10;;;19.50;45.50;;;15.82;60.06;96221.28;4979462;28;20033;-51
2022/07/12 21:33:05;;;;;;;1.60;1.13;;;19.50;45.50;;;15.90;59.85;96220.69;4986847;28;20381;-44
2022/07/12 21:35:37;;;;;;;3.13;1.20;;;19.50;45.70;;;16.02;59.59;96223.00;4978294;28;20042;-49
2022/07/12 21:38:03;;;;;;;3.50;1.25;;;19.50;45.80;;;16.23;57.60;96222.78;4985387;28;20088;-46
2022/07/12 21:40:29;;;;;;;1.17;1.08;;;19.60;46.10;;;16.49;58.10;96226.00;4982014;28;20033;-48
2022/07/12 21:42:55;;;;;;;1.65;1.17;;;19.60;45.70;;;16.70;55.70;96221.16;4990902;28;20034;-48
2022/07/12 21:45:21;;;;;;;1.35;0.80;;;19.80;45.60;;;17.07;53.60;96220.47;4991380;28;20037;-47
2022/07/12 21:47:56;;;;;;;1.10;1.00;;;19.90;46.00;;;17.48;54.28;96217.16;4970394;28;20109;-46
2022/07/12 21:50:32;;;;;;;1.25;1.10;;;20.10;45.40;;;17.66;52.06;96213.66;4963712;28;20489;-46
2022/07/12 21:53:10;;;;;;;3.00;1.10;;;20.30;45.20;;;17.61;53.39;96215.63;4978588;28;20473;-45
2022/07/12 21:55:40;;;;;;;1.42;1.33;;;20.50;44.90;;;17.52;53.95;96220.91;4973217;28;20120;-48
2022/07/12 21:58:06;;;;;;;2.13;1.20;;;20.50;44.60;;;17.43;54.45;96218.06;4985786;28;20022;-47
2022/07/12 22:00:32;;;;;;;1.85;1.38;;;20.60;44.40;;;17.31;54.62;96231.97;4987146;28;20029;-46
2022/07/12 22:02:58;;;;;;;1.30;1.20;;;20.60;45.00;;;17.15;55.13;96219.81;4985735;28;20021;-47
2022/07/12 22:05:24;;;;;;;2.55;1.20;;;20.50;44.30;;;16.98;55.74;96227.56;4987465;28;20080;-48
2022/07/12 22:07:53;;;;;;;1.40;1.23;;;20.50;44.30;;;16.74;57.13;96220.31;4973242;28;20033;-46
2022/07/12 22:10:22;;;;;;;3.33;1.35;;;20.40;44.50;;;16.57;57.93;96219.97;4985991;28;20034;-47
2022/07/12 22:12:54;;;;;;;1.48;1.10;;;20.30;44.60;;;16.39;57.87;96224.25;4996204;28;20095;-46
2022/07/12 22:15:19;;;;;;;1.65;1.30;;;20.20;45.40;;;16.36;58.54;96219.44;4989949;28;20401;-46
